sensor_id;sensor_type;location;lat;lon;timestamp;temperature;humidity
15241;DHT22;7723;52.170;9.978;2023-09-12T00:00:48;20.10;99.90
15241;DHT22;7723;52.170;9.978;2023-09-12T00:03:18;20.10;99.90
15241;DHT22;7723;52.170;9.978;2023-09-12T00:05:51;20.10;99.90
15241;DHT22;7723;52.170;9.978;2023-09-12T00:08:18;20.10;99.90
15241;DHT22;7723;52.170;9.978;2023-09-12T00:10:45;20.10;99.90
15241;DHT22;7723;52.170;9.978;2023-09-12T00:13:13;20.20;99.90
15241;DHT22;7723;52.170;9.978;2023-09-12T00:15:40;20.20;99.90
15241;DHT22;7723;52.170;9.978;2023-09-12T00:18:08;20.10;99.90
15241;DHT22;7723;52.170;9.978;2023-09-12T00:20:35;20.10;99.90
15241;DHT22;7723;52.170;9.978;2023-09-12T00:23:02;20.10;99.90
15241;DHT22;7723;52.170;9.978;2023-09-12T00:25:30;20.00;99.90
15241;DHT22;7723;52.170;9.978;2023-09-12T00:27:57;20.00;99.90
15241;DHT22;7723;52.170;9.978;2023-09-12T00:30:26;20.10;99.90
15241;DHT22;7723;52.170;9.978;2023-09-12T00:32:53;19.90;99.90
15241;DHT22;7723;52.170;9.978;2023-09-12T00:35:20;19.90;99.90
15241;DHT22;7723;52.170;9.978;2023-09-12T00:37:47;20.00;99.90
15241;DHT22;7723;52.170;9.978;2023-09-12T00:40:14;20.10;99.90
15241;DHT22;7723;52.170;9.978;2023-09-12T00:42:41;20.20;99.90
15241;DHT22;7723;52.170;9.978;2023-09-12T00:45:09;20.20;99.90
15241;DHT22;7723;52.170;9.978;2023-09-12T00:47:38;20.20;99.90
15241;DHT22;7723;52.170;9.978;2023-09-12T00:50:06;20.20;99.90
15241;DHT22;7723;52.170;9.978;2023-09-12T00:52:35;20.10;99.90
15241;DHT22;7723;52.170;9.978;2023-09-12T00:55:03;20.10;99.90
15241;DHT22;7723;52.170;9.978;2023-09-12T00:57:32;20.00;99.90
15241;DHT22;7723;52.170;9.978;2023-09-12T01:00:02;20.00;99.90
15241;DHT22;7723;52.170;9.978;2023-09-12T01:02:38;19.90;99.90
15241;DHT22;7723;52.170;9.978;2023-09-12T01:05:06;19.90;99.90
15241;DHT22;7723;52.170;9.978;2023-09-12T01:07:34;19.80;99.90
15241;DHT22;7723;52.170;9.978;2023-09-12T01:10:01;19.80;99.90
15241;DHT22;7723;52.170;9.978;2023-09-12T01:12:29;19.80;99.90
15241;DHT22;7723;52.170;9.978;2023-09-12T01:14:57;19.80;99.90
15241;DHT22;7723;52.170;9.978;2023-09-12T01:17:24;19.70;99.90
15241;DHT22;7723;52.170;9.978;2023-09-12T01:19:53;19.60;99.90
15241;DHT22;7723;52.170;9.978;2023-09-12T01:22:31;19.60;99.90
15241;DHT22;7723;52.170;9.978;2023-09-12T01:25:42;19.50;99.90
15241;DHT22;7723;52.170;9.978;2023-09-12T01:28:15;19.50;99.90
15241;DHT22;7723;52.170;9.978;2023-09-12T01:30:45;19.40;99.90
15241;DHT22;7723;52.170;9.978;2023-09-12T01:33:14;19.40;99.90
15241;DHT22;7723;52.170;9.978;2023-09-12T01:35:42;19.50;99.90
15241;DHT22;7723;52.170;9.978;2023-09-12T01:38:09;19.40;99.90
15241;DHT22;7723;52.170;9.978;2023-09-12T01:40:42;19.40;99.90
15241;DHT22;7723;52.170;9.978;2023-09-12T01:43:10;19.30;99.90
15241;DHT22;7723;52.170;9.978;2023-09-12T01:45:40;19.20;99.90
15241;DHT22;7723;52.170;9.978;2023-09-12T01:48:08;19.10;99.90
15241;DHT22;7723;52.170;9.978;2023-09-12T01:50:36;19.00;99.90
15241;DHT22;7723;52.170;9.978;2023-09-12T01:53:03;18.90;99.90
15241;DHT22;7723;52.170;9.978;2023-09-12T01:55:31;18.80;99.90
15241;DHT22;7723;52.170;9.978;2023-09-12T01:57:58;18.90;99.90
15241;DHT22;7723;52.170;9.978;2023-09-12T02:00:25;18.80;99.90
15241;DHT22;7723;52.170;9.978;2023-09-12T02:02:54;18.70;99.90
15241;DHT22;7723;52.170;9.978;2023-09-12T02:05:22;18.70;99.90
15241;DHT22;7723;52.170;9.978;2023-09-12T02:07:49;18.70;99.90
15241;DHT22;7723;52.170;9.978;2023-09-12T02:10:16;18.70;99.90
15241;DHT22;7723;52.170;9.978;2023-09-12T02:12:44;18.60;99.90
15241;DHT22;7723;52.170;9.978;2023-09-12T02:15:11;18.60;99.90
15241;DHT22;7723;52.170;9.978;2023-09-12T02:17:38;18.50;99.90
15241;DHT22;7723;52.170;9.978;2023-09-12T02:20:08;18.50;99.90
15241;DHT22;7723;52.170;9.978;2023-09-12T02:22:37;18.40;99.90
15241;DHT22;7723;52.170;9.978;2023-09-12T02:25:06;18.40;99.90
15241;DHT22;7723;52.170;9.978;2023-09-12T02:27:34;18.40;99.90
15241;DHT22;7723;52.170;9.978;2023-09-12T02:30:01;18.40;99.90
15241;DHT22;7723;52.170;9.978;2023-09-12T02:32:28;17.80;99.90
15241;DHT22;7723;52.170;9.978;2023-09-12T02:34:55;18.40;99.90
15241;DHT22;7723;52.170;9.978;2023-09-12T02:37:24;18.50;99.90
15241;DHT22;7723;52.170;9.978;2023-09-12T02:39:51;18.50;99.90
15241;DHT22;7723;52.170;9.978;2023-09-12T02:42:18;18.60;99.90
15241;DHT22;7723;52.170;9.978;2023-09-12T02:44:45;18.50;99.90
15241;DHT22;7723;52.170;9.978;2023-09-12T02:47:13;18.40;99.90
15241;DHT22;7723;52.170;9.978;2023-09-12T02:49:40;18.50;99.90
15241;DHT22;7723;52.170;9.978;2023-09-12T02:52:07;18.40;99.90
15241;DHT22;7723;52.170;9.978;2023-09-12T02:54:36;18.40;99.90
15241;DHT22;7723;52.170;9.978;2023-09-12T02:57:03;18.30;99.90
15241;DHT22;7723;52.170;9.978;2023-09-12T02:59:31;18.30;99.90
15241;DHT22;7723;52.170;9.978;2023-09-12T03:01:58;18.30;99.90
15241;DHT22;7723;52.170;9.978;2023-09-12T03:04:25;18.30;99.90
15241;DHT22;7723;52.170;9.978;2023-09-12T03:06:53;18.40;99.90
15241;DHT22;7723;52.170;9.978;2023-09-12T03:09:20;18.60;99.90
15241;DHT22;7723;52.170;9.978;2023-09-12T03:11:49;18.70;99.90
15241;DHT22;7723;52.170;9.978;2023-09-12T03:14:17;18.80;99.90
15241;DHT22;7723;52.170;9.978;2023-09-12T03:16:44;18.90;99.90
15241;DHT22;7723;52.170;9.978;2023-09-12T03:19:11;18.90;99.90
15241;DHT22;7723;52.170;9.978;2023-09-12T03:21:38;19.00;99.90
15241;DHT22;7723;52.170;9.978;2023-09-12T03:24:06;19.00;99.90
15241;DHT22;7723;52.170;9.978;2023-09-12T03:26:34;19.00;99.90
15241;DHT22;7723;52.170;9.978;2023-09-12T03:29:03;18.90;99.90
15241;DHT22;7723;52.170;9.978;2023-09-12T03:31:31;18.90;99.90
15241;DHT22;7723;52.170;9.978;2023-09-12T03:33:59;18.90;99.90
15241;DHT22;7723;52.170;9.978;2023-09-12T03:36:26;18.80;99.90
15241;DHT22;7723;52.170;9.978;2023-09-12T03:38:53;18.80;99.90
15241;DHT22;7723;52.170;9.978;2023-09-12T03:41:20;18.70;99.90
15241;DHT22;7723;52.170;9.978;2023-09-12T03:43:52;18.60;99.90
15241;DHT22;7723;52.170;9.978;2023-09-12T03:46:20;18.70;99.90
15241;DHT22;7723;52.170;9.978;2023-09-12T03:48:48;18.70;99.90
15241;DHT22;7723;52.170;9.978;2023-09-12T03:51:16;18.60;99.90
15241;DHT22;7723;52.170;9.978;2023-09-12T03:53:43;18.60;99.90
15241;DHT22;7723;52.170;9.978;2023-09-12T03:56:10;18.60;99.90
15241;DHT22;7723;52.170;9.978;2023-09-12T03:58:38;18.60;99.90
15241;DHT22;7723;52.170;9.978;2023-09-12T04:01:05;18.60;99.90
15241;DHT22;7723;52.170;9.978;2023-09-12T04:03:33;18.70;99.90
15241;DHT22;7723;52.170;9.978;2023-09-12T04:06:01;18.80;99.90
15241;DHT22;7723;52.170;9.978;2023-09-12T04:08:28;18.90;99.90
15241;DHT22;7723;52.170;9.978;2023-09-12T04:10:55;19.10;99.90
15241;DHT22;7723;52.170;9.978;2023-09-12T04:13:22;19.20;99.90
15241;DHT22;7723;52.170;9.978;2023-09-12T04:15:49;19.30;99.90
15241;DHT22;7723;52.170;9.978;2023-09-12T04:18:16;19.40;99.90
15241;DHT22;7723;52.170;9.978;2023-09-12T04:20:44;19.50;99.90
15241;DHT22;7723;52.170;9.978;2023-09-12T04:23:11;19.50;99.90
15241;DHT22;7723;52.170;9.978;2023-09-12T04:25:41;19.50;99.90
15241;DHT22;7723;52.170;9.978;2023-09-12T04:28:09;19.40;99.90
15241;DHT22;7723;52.170;9.978;2023-09-12T04:30:36;19.40;99.90
15241;DHT22;7723;52.170;9.978;2023-09-12T04:33:04;19.30;99.90
15241;DHT22;7723;52.170;9.978;2023-09-12T04:35:33;19.30;99.90
15241;DHT22;7723;52.170;9.978;2023-09-12T04:38:01;19.30;99.90
15241;DHT22;7723;52.170;9.978;2023-09-12T04:40:28;19.20;99.90
15241;DHT22;7723;52.170;9.978;2023-09-12T04:42:55;19.10;99.90
15241;DHT22;7723;52.170;9.978;2023-09-12T04:45:22;19.10;99.90
15241;DHT22;7723;52.170;9.978;2023-09-12T04:47:50;19.20;99.90
15241;DHT22;7723;52.170;9.978;2023-09-12T04:50:17;19.30;99.90
15241;DHT22;7723;52.170;9.978;2023-09-12T04:52:44;19.40;99.90
15241;DHT22;7723;52.170;9.978;2023-09-12T04:55:13;19.30;99.90
15241;DHT22;7723;52.170;9.978;2023-09-12T04:57:43;19.30;99.90
15241;DHT22;7723;52.170;9.978;2023-09-12T05:00:12;19.50;99.90
15241;DHT22;7723;52.170;9.978;2023-09-12T05:02:40;19.50;99.90
15241;DHT22;7723;52.170;9.978;2023-09-12T05:05:07;19.50;99.90
15241;DHT22;7723;52.170;9.978;2023-09-12T05:07:34;19.50;99.90
15241;DHT22;7723;52.170;9.978;2023-09-12T05:10:01;19.50;99.90
15241;DHT22;7723;52.170;9.978;2023-09-12T05:12:30;19.50;99.90
15241;DHT22;7723;52.170;9.978;2023-09-12T05:14:58;19.50;99.90
15241;DHT22;7723;52.170;9.978;2023-09-12T05:17:25;19.50;99.90
15241;DHT22;7723;52.170;9.978;2023-09-12T05:19:52;19.50;99.90
15241;DHT22;7723;52.170;9.978;2023-09-12T05:22:19;19.60;99.90
15241;DHT22;7723;52.170;9.978;2023-09-12T05:24:46;19.70;99.90
15241;DHT22;7723;52.170;9.978;2023-09-12T05:27:15;19.90;99.90
15241;DHT22;7723;52.170;9.978;2023-09-12T05:29:43;19.90;99.90
15241;DHT22;7723;52.170;9.978;2023-09-12T05:32:11;19.90;99.90
15241;DHT22;7723;52.170;9.978;2023-09-12T05:34:38;19.90;99.90
15241;DHT22;7723;52.170;9.978;2023-09-12T05:37:05;20.00;99.90
15241;DHT22;7723;52.170;9.978;2023-09-12T05:39:32;20.10;99.90
15241;DHT22;7723;52.170;9.978;2023-09-12T05:41:59;20.10;99.90
15241;DHT22;7723;52.170;9.978;2023-09-12T05:44:26;20.20;99.90
15241;DHT22;7723;52.170;9.978;2023-09-12T05:46:55;20.10;99.90
15241;DHT22;7723;52.170;9.978;2023-09-12T05:49:22;20.20;99.90
15241;DHT22;7723;52.170;9.978;2023-09-12T05:51:49;20.20;99.90
15241;DHT22;7723;52.170;9.978;2023-09-12T05:54:16;20.20;99.90
15241;DHT22;7723;52.170;9.978;2023-09-12T05:56:45;20.20;99.90
15241;DHT22;7723;52.170;9.978;2023-09-12T05:59:13;20.10;99.90
15241;DHT22;7723;52.170;9.978;2023-09-12T06:01:40;20.10;99.90
15241;DHT22;7723;52.170;9.978;2023-09-12T06:04:09;20.00;99.90
15241;DHT22;7723;52.170;9.978;2023-09-12T06:06:36;20.00;99.90
15241;DHT22;7723;52.170;9.978;2023-09-12T06:09:04;20.00;99.90
15241;DHT22;7723;52.170;9.978;2023-09-12T06:11:32;19.90;99.90
15241;DHT22;7723;52.170;9.978;2023-09-12T06:13:59;20.00;99.90
15241;DHT22;7723;52.170;9.978;2023-09-12T06:16:26;20.00;99.90
15241;DHT22;7723;52.170;9.978;2023-09-12T06:18:53;20.00;99.90
15241;DHT22;7723;52.170;9.978;2023-09-12T06:21:22;20.00;99.90
15241;DHT22;7723;52.170;9.978;2023-09-12T06:24:08;19.90;99.90
15241;DHT22;7723;52.170;9.978;2023-09-12T06:26:35;19.90;99.90
15241;DHT22;7723;52.170;9.978;2023-09-12T06:29:03;19.90;99.90
15241;DHT22;7723;52.170;9.978;2023-09-12T06:31:30;19.80;99.90
15241;DHT22;7723;52.170;9.978;2023-09-12T06:33:57;19.80;99.90
15241;DHT22;7723;52.170;9.978;2023-09-12T06:36:27;19.80;99.90
15241;DHT22;7723;52.170;9.978;2023-09-12T06:38:55;19.70;99.90
15241;DHT22;7723;52.170;9.978;2023-09-12T06:41:22;19.70;99.90
15241;DHT22;7723;52.170;9.978;2023-09-12T06:43:49;19.70;99.90
15241;DHT22;7723;52.170;9.978;2023-09-12T06:46:16;19.60;99.90
15241;DHT22;7723;52.170;9.978;2023-09-12T06:48:44;19.60;99.90
15241;DHT22;7723;52.170;9.978;2023-09-12T06:51:11;19.60;99.90
15241;DHT22;7723;52.170;9.978;2023-09-12T06:53:40;19.50;99.90
15241;DHT22;7723;52.170;9.978;2023-09-12T06:56:08;19.40;99.90
15241;DHT22;7723;52.170;9.978;2023-09-12T06:58:35;19.30;99.90
15241;DHT22;7723;52.170;9.978;2023-09-12T07:01:03;19.30;99.90
15241;DHT22;7723;52.170;9.978;2023-09-12T07:03:31;19.20;99.90
15241;DHT22;7723;52.170;9.978;2023-09-12T07:05:59;19.20;99.90
15241;DHT22;7723;52.170;9.978;2023-09-12T07:08:28;19.20;99.90
15241;DHT22;7723;52.170;9.978;2023-09-12T07:10:57;19.20;99.90
15241;DHT22;7723;52.170;9.978;2023-09-12T07:13:25;19.20;99.90
15241;DHT22;7723;52.170;9.978;2023-09-12T07:15:52;19.20;99.90
15241;DHT22;7723;52.170;9.978;2023-09-12T07:18:19;19.20;99.90
15241;DHT22;7723;52.170;9.978;2023-09-12T07:20:46;19.20;99.90
15241;DHT22;7723;52.170;9.978;2023-09-12T07:23:13;19.30;99.90
15241;DHT22;7723;52.170;9.978;2023-09-12T07:25:41;19.40;99.90
15241;DHT22;7723;52.170;9.978;2023-09-12T07:28:10;19.40;99.90
15241;DHT22;7723;52.170;9.978;2023-09-12T07:30:37;19.50;99.90
15241;DHT22;7723;52.170;9.978;2023-09-12T07:33:05;19.50;99.90
15241;DHT22;7723;52.170;9.978;2023-09-12T07:35:32;19.60;99.90
15241;DHT22;7723;52.170;9.978;2023-09-12T07:37:59;19.70;99.90
15241;DHT22;7723;52.170;9.978;2023-09-12T07:40:26;19.80;99.90
15241;DHT22;7723;52.170;9.978;2023-09-12T07:42:54;19.70;99.90
15241;DHT22;7723;52.170;9.978;2023-09-12T07:45:23;19.80;99.90
15241;DHT22;7723;52.170;9.978;2023-09-12T07:47:50;19.70;99.90
15241;DHT22;7723;52.170;9.978;2023-09-12T07:50:17;19.80;99.90
15241;DHT22;7723;52.170;9.978;2023-09-12T07:52:44;19.80;99.90
15241;DHT22;7723;52.170;9.978;2023-09-12T07:55:11;19.80;99.90
15241;DHT22;7723;52.170;9.978;2023-09-12T07:57:38;19.90;99.90
15241;DHT22;7723;52.170;9.978;2023-09-12T08:00:06;20.00;99.90
15241;DHT22;7723;52.170;9.978;2023-09-12T08:02:37;20.20;99.90
15241;DHT22;7723;52.170;9.978;2023-09-12T08:05:05;20.40;99.90
15241;DHT22;7723;52.170;9.978;2023-09-12T08:07:33;20.60;99.90
15241;DHT22;7723;52.170;9.978;2023-09-12T08:10:00;20.70;99.90
15241;DHT22;7723;52.170;9.978;2023-09-12T08:12:28;20.60;99.90
15241;DHT22;7723;52.170;9.978;2023-09-12T08:14:55;20.70;99.90
15241;DHT22;7723;52.170;9.978;2023-09-12T08:17:23;20.80;99.90
15241;DHT22;7723;52.170;9.978;2023-09-12T08:19:51;21.00;99.90
15241;DHT22;7723;52.170;9.978;2023-09-12T08:22:18;21.20;99.90
15241;DHT22;7723;52.170;9.978;2023-09-12T08:24:46;21.40;99.90
15241;DHT22;7723;52.170;9.978;2023-09-12T08:27:13;21.80;99.90
15241;DHT22;7723;52.170;9.978;2023-09-12T08:29:40;22.20;99.90
15241;DHT22;7723;52.170;9.978;2023-09-12T08:32:07;22.30;99.90
15241;DHT22;7723;52.170;9.978;2023-09-12T08:34:34;22.20;99.90
15241;DHT22;7723;52.170;9.978;2023-09-12T08:37:03;22.10;99.90
15241;DHT22;7723;52.170;9.978;2023-09-12T08:39:41;22.00;99.90
15241;DHT22;7723;52.170;9.978;2023-09-12T08:42:12;21.80;99.90
15241;DHT22;7723;52.170;9.978;2023-09-12T08:44:40;21.60;99.90
15241;DHT22;7723;52.170;9.978;2023-09-12T08:47:08;21.50;99.90
15241;DHT22;7723;52.170;9.978;2023-09-12T08:49:37;21.40;99.90
15241;DHT22;7723;52.170;9.978;2023-09-12T08:52:05;21.30;99.90
15241;DHT22;7723;52.170;9.978;2023-09-12T08:54:32;21.20;99.90
15241;DHT22;7723;52.170;9.978;2023-09-12T08:57:01;21.10;99.90
15241;DHT22;7723;52.170;9.978;2023-09-12T08:59:29;21.10;99.90
15241;DHT22;7723;52.170;9.978;2023-09-12T09:01:58;21.00;99.90
15241;DHT22;7723;52.170;9.978;2023-09-12T09:04:28;21.10;99.90
15241;DHT22;7723;52.170;9.978;2023-09-12T09:06:58;21.10;99.90
15241;DHT22;7723;52.170;9.978;2023-09-12T09:09:27;21.00;99.90
15241;DHT22;7723;52.170;9.978;2023-09-12T09:11:55;21.00;99.90
15241;DHT22;7723;52.170;9.978;2023-09-12T09:14:22;21.00;99.90
15241;DHT22;7723;52.170;9.978;2023-09-12T09:16:49;21.10;99.90
15241;DHT22;7723;52.170;9.978;2023-09-12T09:19:16;21.20;99.90
15241;DHT22;7723;52.170;9.978;2023-09-12T09:21:45;21.30;99.90
15241;DHT22;7723;52.170;9.978;2023-09-12T09:24:13;21.50;99.90
15241;DHT22;7723;52.170;9.978;2023-09-12T09:26:45;21.70;99.90
15241;DHT22;7723;52.170;9.978;2023-09-12T09:29:14;21.90;99.90
15241;DHT22;7723;52.170;9.978;2023-09-12T09:31:43;22.00;99.90
15241;DHT22;7723;52.170;9.978;2023-09-12T09:34:11;22.40;99.90
15241;DHT22;7723;52.170;9.978;2023-09-12T09:36:41;22.90;99.90
15241;DHT22;7723;52.170;9.978;2023-09-12T09:39:09;23.30;99.90
15241;DHT22;7723;52.170;9.978;2023-09-12T09:41:38;23.50;99.90
15241;DHT22;7723;52.170;9.978;2023-09-12T09:44:07;23.60;99.90
15241;DHT22;7723;52.170;9.978;2023-09-12T09:46:35;23.80;99.90
15241;DHT22;7723;52.170;9.978;2023-09-12T09:49:03;23.90;99.90
15241;DHT22;7723;52.170;9.978;2023-09-12T09:51:32;24.20;99.90
15241;DHT22;7723;52.170;9.978;2023-09-12T09:53:59;24.40;99.90
15241;DHT22;7723;52.170;9.978;2023-09-12T09:56:26;24.20;99.90
15241;DHT22;7723;52.170;9.978;2023-09-12T09:58:55;24.00;99.90
15241;DHT22;7723;52.170;9.978;2023-09-12T10:01:29;24.00;99.90
15241;DHT22;7723;52.170;9.978;2023-09-12T10:03:59;24.00;99.90
15241;DHT22;7723;52.170;9.978;2023-09-12T10:06:27;23.80;99.90
15241;DHT22;7723;52.170;9.978;2023-09-12T10:08:55;23.40;99.90
15241;DHT22;7723;52.170;9.978;2023-09-12T10:11:24;23.00;99.90
15241;DHT22;7723;52.170;9.978;2023-09-12T10:13:54;22.90;99.90
15241;DHT22;7723;52.170;9.978;2023-09-12T10:16:27;22.80;99.90
15241;DHT22;7723;52.170;9.978;2023-09-12T10:18:58;22.90;99.90
15241;DHT22;7723;52.170;9.978;2023-09-12T10:21:29;22.80;99.90
15241;DHT22;7723;52.170;9.978;2023-09-12T10:23:59;22.80;99.90
15241;DHT22;7723;52.170;9.978;2023-09-12T10:26:26;23.00;99.90
15241;DHT22;7723;52.170;9.978;2023-09-12T10:28:54;23.00;99.90
15241;DHT22;7723;52.170;9.978;2023-09-12T10:31:23;23.00;99.90
15241;DHT22;7723;52.170;9.978;2023-09-12T10:33:55;23.10;99.90
15241;DHT22;7723;52.170;9.978;2023-09-12T10:36:22;23.00;99.90
15241;DHT22;7723;52.170;9.978;2023-09-12T10:38:52;23.00;99.90
15241;DHT22;7723;52.170;9.978;2023-09-12T10:41:21;23.10;99.90
15241;DHT22;7723;52.170;9.978;2023-09-12T10:43:50;23.10;99.90
15241;DHT22;7723;52.170;9.978;2023-09-12T10:46:19;23.50;99.90
15241;DHT22;7723;52.170;9.978;2023-09-12T10:48:48;23.60;99.90
15241;DHT22;7723;52.170;9.978;2023-09-12T10:51:17;23.40;99.90
15241;DHT22;7723;52.170;9.978;2023-09-12T10:53:46;23.20;99.90
15241;DHT22;7723;52.170;9.978;2023-09-12T10:56:16;23.10;99.90
15241;DHT22;7723;52.170;9.978;2023-09-12T10:59:08;23.00;99.90
15241;DHT22;7723;52.170;9.978;2023-09-12T11:01:39;22.80;99.90
15241;DHT22;7723;52.170;9.978;2023-09-12T11:04:32;22.70;99.90
15241;DHT22;7723;52.170;9.978;2023-09-12T11:07:02;22.60;99.90
15241;DHT22;7723;52.170;9.978;2023-09-12T11:10:18;22.40;99.90
15241;DHT22;7723;52.170;9.978;2023-09-12T11:12:46;22.20;99.90
15241;DHT22;7723;52.170;9.978;2023-09-12T11:15:14;22.00;99.90
15241;DHT22;7723;52.170;9.978;2023-09-12T11:17:43;21.90;99.90
15241;DHT22;7723;52.170;9.978;2023-09-12T11:20:10;21.60;99.90
15241;DHT22;7723;52.170;9.978;2023-09-12T11:22:41;21.60;99.90
15241;DHT22;7723;52.170;9.978;2023-09-12T11:25:19;21.50;99.90
15241;DHT22;7723;52.170;9.978;2023-09-12T11:28:03;21.60;99.90
15241;DHT22;7723;52.170;9.978;2023-09-12T11:30:31;21.50;99.90
15241;DHT22;7723;52.170;9.978;2023-09-12T11:32:58;21.50;99.90
15241;DHT22;7723;52.170;9.978;2023-09-12T11:35:27;21.40;99.90
15241;DHT22;7723;52.170;9.978;2023-09-12T11:37:57;21.30;99.90
15241;DHT22;7723;52.170;9.978;2023-09-12T11:40:42;21.40;99.90
15241;DHT22;7723;52.170;9.978;2023-09-12T11:43:20;21.30;99.90
15241;DHT22;7723;52.170;9.978;2023-09-12T11:45:49;21.20;99.90
15241;DHT22;7723;52.170;9.978;2023-09-12T11:48:17;21.20;99.90
15241;DHT22;7723;52.170;9.978;2023-09-12T11:50:50;21.30;99.90
15241;DHT22;7723;52.170;9.978;2023-09-12T11:53:20;21.40;99.90
15241;DHT22;7723;52.170;9.978;2023-09-12T11:55:54;21.60;99.90
15241;DHT22;7723;52.170;9.978;2023-09-12T11:58:22;21.80;99.90
15241;DHT22;7723;52.170;9.978;2023-09-12T12:00:51;21.90;99.90
15241;DHT22;7723;52.170;9.978;2023-09-12T12:03:19;22.00;99.90
15241;DHT22;7723;52.170;9.978;2023-09-12T12:05:47;21.80;99.90
15241;DHT22;7723;52.170;9.978;2023-09-12T12:08:16;21.60;99.90
15241;DHT22;7723;52.170;9.978;2023-09-12T12:10:49;21.60;99.90
15241;DHT22;7723;52.170;9.978;2023-09-12T12:13:17;21.70;99.90
15241;DHT22;7723;52.170;9.978;2023-09-12T12:15:44;21.90;99.90
15241;DHT22;7723;52.170;9.978;2023-09-12T12:18:12;22.10;99.90
15241;DHT22;7723;52.170;9.978;2023-09-12T12:20:39;22.40;99.90
15241;DHT22;7723;52.170;9.978;2023-09-12T12:23:06;22.40;99.90
15241;DHT22;7723;52.170;9.978;2023-09-12T12:25:34;22.40;99.90
15241;DHT22;7723;52.170;9.978;2023-09-12T12:28:03;22.30;99.90
15241;DHT22;7723;52.170;9.978;2023-09-12T12:30:31;22.60;99.90
15241;DHT22;7723;52.170;9.978;2023-09-12T12:33:01;22.80;99.90
15241;DHT22;7723;52.170;9.978;2023-09-12T12:35:28;22.80;99.90
15241;DHT22;7723;52.170;9.978;2023-09-12T12:37:56;22.80;99.90
15241;DHT22;7723;52.170;9.978;2023-09-12T12:40:23;22.60;99.90
15241;DHT22;7723;52.170;9.978;2023-09-12T12:42:51;22.20;99.90
15241;DHT22;7723;52.170;9.978;2023-09-12T12:45:21;21.50;99.90
15241;DHT22;7723;52.170;9.978;2023-09-12T12:47:51;21.30;99.90
15241;DHT22;7723;52.170;9.978;2023-09-12T12:50:19;21.10;99.90
15241;DHT22;7723;52.170;9.978;2023-09-12T12:52:48;21.10;99.90
15241;DHT22;7723;52.170;9.978;2023-09-12T12:55:16;21.10;99.90
15241;DHT22;7723;52.170;9.978;2023-09-12T12:57:45;21.20;99.90
15241;DHT22;7723;52.170;9.978;2023-09-12T13:00:16;21.40;99.90
15241;DHT22;7723;52.170;9.978;2023-09-12T13:02:45;21.50;99.90
15241;DHT22;7723;52.170;9.978;2023-09-12T13:05:25;21.50;99.90
15241;DHT22;7723;52.170;9.978;2023-09-12T13:07:52;21.40;99.90
15241;DHT22;7723;52.170;9.978;2023-09-12T13:10:20;21.40;99.90
15241;DHT22;7723;52.170;9.978;2023-09-12T13:12:47;21.60;99.90
15241;DHT22;7723;52.170;9.978;2023-09-12T13:15:15;21.70;99.90
15241;DHT22;7723;52.170;9.978;2023-09-12T13:17:45;21.70;99.90
15241;DHT22;7723;52.170;9.978;2023-09-12T13:20:12;21.90;99.90
15241;DHT22;7723;52.170;9.978;2023-09-12T13:22:39;22.00;99.90
15241;DHT22;7723;52.170;9.978;2023-09-12T13:25:09;22.10;99.90
15241;DHT22;7723;52.170;9.978;2023-09-12T13:27:36;22.20;99.90
15241;DHT22;7723;52.170;9.978;2023-09-12T13:30:04;22.30;99.90
15241;DHT22;7723;52.170;9.978;2023-09-12T13:32:31;22.50;99.90
15241;DHT22;7723;52.170;9.978;2023-09-12T13:35:01;22.50;99.90
15241;DHT22;7723;52.170;9.978;2023-09-12T13:37:28;22.40;99.90
15241;DHT22;7723;52.170;9.978;2023-09-12T13:39:56;22.70;99.90
15241;DHT22;7723;52.170;9.978;2023-09-12T13:42:24;22.80;99.90
15241;DHT22;7723;52.170;9.978;2023-09-12T13:44:56;23.10;99.90
15241;DHT22;7723;52.170;9.978;2023-09-12T13:47:23;23.10;99.90
15241;DHT22;7723;52.170;9.978;2023-09-12T13:49:51;23.30;99.90
15241;DHT22;7723;52.170;9.978;2023-09-12T13:52:21;23.40;99.90
15241;DHT22;7723;52.170;9.978;2023-09-12T13:54:48;23.40;99.90
15241;DHT22;7723;52.170;9.978;2023-09-12T13:57:15;23.50;99.90
15241;DHT22;7723;52.170;9.978;2023-09-12T13:59:43;23.40;99.90
15241;DHT22;7723;52.170;9.978;2023-09-12T14:02:10;23.10;99.90
15241;DHT22;7723;52.170;9.978;2023-09-12T14:04:37;23.00;99.90
15241;DHT22;7723;52.170;9.978;2023-09-12T14:07:05;23.10;99.90
15241;DHT22;7723;52.170;9.978;2023-09-12T14:09:34;23.10;99.90
15241;DHT22;7723;52.170;9.978;2023-09-12T14:12:01;23.10;99.90
15241;DHT22;7723;52.170;9.978;2023-09-12T14:14:28;23.10;99.90
15241;DHT22;7723;52.170;9.978;2023-09-12T14:16:58;23.20;99.90
15241;DHT22;7723;52.170;9.978;2023-09-12T14:19:25;23.30;99.90
15241;DHT22;7723;52.170;9.978;2023-09-12T14:21:52;23.30;99.90
15241;DHT22;7723;52.170;9.978;2023-09-12T14:24:19;23.50;99.90
15241;DHT22;7723;52.170;9.978;2023-09-12T14:26:48;23.50;99.90
15241;DHT22;7723;52.170;9.978;2023-09-12T14:29:15;23.60;99.90
15241;DHT22;7723;52.170;9.978;2023-09-12T14:31:44;23.60;99.90
15241;DHT22;7723;52.170;9.978;2023-09-12T14:34:15;23.50;99.90
15241;DHT22;7723;52.170;9.978;2023-09-12T14:36:43;23.40;99.90
15241;DHT22;7723;52.170;9.978;2023-09-12T14:39:11;23.50;99.90
15241;DHT22;7723;52.170;9.978;2023-09-12T14:41:43;23.50;99.90
15241;DHT22;7723;52.170;9.978;2023-09-12T14:44:16;23.60;99.90
15241;DHT22;7723;52.170;9.978;2023-09-12T14:46:44;23.80;99.90
15241;DHT22;7723;52.170;9.978;2023-09-12T14:49:11;23.80;99.90
15241;DHT22;7723;52.170;9.978;2023-09-12T14:51:38;24.00;99.90
15241;DHT22;7723;52.170;9.978;2023-09-12T14:54:06;23.90;99.90
15241;DHT22;7723;52.170;9.978;2023-09-12T14:56:34;23.70;99.90
15241;DHT22;7723;52.170;9.978;2023-09-12T14:59:05;23.50;99.90
15241;DHT22;7723;52.170;9.978;2023-09-12T15:01:34;23.40;99.90
15241;DHT22;7723;52.170;9.978;2023-09-12T15:04:04;23.20;99.90
15241;DHT22;7723;52.170;9.978;2023-09-12T15:06:31;23.30;99.90
15241;DHT22;7723;52.170;9.978;2023-09-12T15:08:58;23.50;99.90
15241;DHT22;7723;52.170;9.978;2023-09-12T15:11:25;23.50;99.90
15241;DHT22;7723;52.170;9.978;2023-09-12T15:13:52;23.50;99.90
15241;DHT22;7723;52.170;9.978;2023-09-12T15:16:20;23.50;99.90
15241;DHT22;7723;52.170;9.978;2023-09-12T15:18:49;23.50;99.90
15241;DHT22;7723;52.170;9.978;2023-09-12T15:21:17;23.40;99.90
15241;DHT22;7723;52.170;9.978;2023-09-12T15:23:44;23.30;99.90
15241;DHT22;7723;52.170;9.978;2023-09-12T15:26:11;23.10;99.90
15241;DHT22;7723;52.170;9.978;2023-09-12T15:28:38;23.10;99.70
15241;DHT22;7723;52.170;9.978;2023-09-12T15:31:05;23.10;99.70
15241;DHT22;7723;52.170;9.978;2023-09-12T15:33:33;23.10;99.90
15241;DHT22;7723;52.170;9.978;2023-09-12T15:36:01;23.10;76.60
15241;DHT22;7723;52.170;9.978;2023-09-12T15:38:28;23.00;99.90
15241;DHT22;7723;52.170;9.978;2023-09-12T15:40:56;23.10;99.90
15241;DHT22;7723;52.170;9.978;2023-09-12T15:43:23;23.00;55.00
15241;DHT22;7723;52.170;9.978;2023-09-12T15:45:50;23.00;1.00
15241;DHT22;7723;52.170;9.978;2023-09-12T15:48:18;23.00;1.00
15241;DHT22;7723;52.170;9.978;2023-09-12T15:50:45;23.00;6.80
15241;DHT22;7723;52.170;9.978;2023-09-12T15:53:14;23.00;1.00
15241;DHT22;7723;52.170;9.978;2023-09-12T15:55:42;22.80;1.00